ETS weather

Enterprise Municipal Airport
Enterprise, Alabama, United States

Public forecast

Using degrees Fahrenheit for public forecast. Weather courtesy of forecast.io.

Current aviation weather report (METAR) for Enterprise Municipal Airport

Retrieved 2020/07/10 11:35 UTC (2 minutes ago):

KEDN 101135Z AUTO 00000KT 10SM CLR 24/24 A2998 RMK AO2 T02370237

Closest aviation forecast (TAF) to Enterprise Municipal Airport

Closest forecast is Cairns AAF (Fort Rucker) Air Field, 9.7 nm (17.9 km) E. Retrieved 2020/07/10 08:03 UTC (4 hours ago):

TAF KOZR 100800Z 1008/1114 VRB06KT 9999 FEW015 BKN030 QNH2993INS BECMG 1016/1017 31009KT 9000 -SHRA FEW030 BKN055 QNH2999INS TEMPO 1017/1022 VRB15G25KT 9000 -TSRA SCT035CB BKN055 BECMG 1022/1023 VRB06KT 9999 NSW SCT035 QNH2994INS BECMG 1102/1103 28006KT 9999 FEW020 QNH2995INS TX32/1020Z TN24/1011Z